sensor_id;sensor_type;location;lat;lon;timestamp;temperature;humidity
43561;DHT22;32305;46.410;17.394;2024-01-30T00:00:29;21.20;32.50
43561;DHT22;32305;46.410;17.394;2024-01-30T00:02:56;21.20;32.50
43561;DHT22;32305;46.410;17.394;2024-01-30T00:05:23;21.30;32.60
43561;DHT22;32305;46.410;17.394;2024-01-30T00:07:50;21.20;32.50
43561;DHT22;32305;46.410;17.394;2024-01-30T00:10:17;21.20;32.50
43561;DHT22;32305;46.410;17.394;2024-01-30T00:12:44;21.20;32.50
43561;DHT22;32305;46.410;17.394;2024-01-30T00:15:11;21.20;32.50
43561;DHT22;32305;46.410;17.394;2024-01-30T00:17:38;21.20;32.50
43561;DHT22;32305;46.410;17.394;2024-01-30T00:20:05;21.20;32.50
43561;DHT22;32305;46.410;17.394;2024-01-30T00:22:33;21.20;32.50
43561;DHT22;32305;46.410;17.394;2024-01-30T00:25:00;21.20;32.60
43561;DHT22;32305;46.410;17.394;2024-01-30T00:27:27;21.20;32.50
43561;DHT22;32305;46.410;17.394;2024-01-30T00:29:54;21.20;32.50
43561;DHT22;32305;46.410;17.394;2024-01-30T00:32:21;21.20;32.50
43561;DHT22;32305;46.410;17.394;2024-01-30T00:34:52;21.20;32.50
43561;DHT22;32305;46.410;17.394;2024-01-30T00:37:19;21.20;32.40
43561;DHT22;32305;46.410;17.394;2024-01-30T00:39:47;21.20;32.40
43561;DHT22;32305;46.410;17.394;2024-01-30T00:42:13;21.20;32.40
43561;DHT22;32305;46.410;17.394;2024-01-30T00:44:40;21.20;32.40
43561;DHT22;32305;46.410;17.394;2024-01-30T00:47:07;21.20;32.40
43561;DHT22;32305;46.410;17.394;2024-01-30T00:49:34;21.20;32.40
43561;DHT22;32305;46.410;17.394;2024-01-30T00:52:02;21.10;32.40
43561;DHT22;32305;46.410;17.394;2024-01-30T00:54:29;21.10;33.00
43561;DHT22;32305;46.410;17.394;2024-01-30T00:56:56;21.10;32.40
43561;DHT22;32305;46.410;17.394;2024-01-30T00:59:23;21.10;32.40
43561;DHT22;32305;46.410;17.394;2024-01-30T01:01:50;21.10;32.40
43561;DHT22;32305;46.410;17.394;2024-01-30T01:04:17;21.10;32.40
43561;DHT22;32305;46.410;17.394;2024-01-30T01:06:44;21.10;32.40
43561;DHT22;32305;46.410;17.394;2024-01-30T01:09:12;21.10;32.40
43561;DHT22;32305;46.410;17.394;2024-01-30T01:11:39;21.10;32.40
43561;DHT22;32305;46.410;17.394;2024-01-30T01:14:06;21.10;32.40
43561;DHT22;32305;46.410;17.394;2024-01-30T01:16:33;21.10;32.40
43561;DHT22;32305;46.410;17.394;2024-01-30T01:19:00;21.10;32.40
43561;DHT22;32305;46.410;17.394;2024-01-30T01:21:28;21.10;32.40
43561;DHT22;32305;46.410;17.394;2024-01-30T01:23:54;21.10;32.40
43561;DHT22;32305;46.410;17.394;2024-01-30T01:26:23;21.10;32.40
43561;DHT22;32305;46.410;17.394;2024-01-30T01:28:49;21.00;32.30
43561;DHT22;32305;46.410;17.394;2024-01-30T01:31:16;21.10;32.40
43561;DHT22;32305;46.410;17.394;2024-01-30T01:33:45;21.10;32.40
43561;DHT22;32305;46.410;17.394;2024-01-30T01:36:13;21.10;32.90
43561;DHT22;32305;46.410;17.394;2024-01-30T01:38:40;21.20;32.30
43561;DHT22;32305;46.410;17.394;2024-01-30T01:41:07;21.10;32.20
43561;DHT22;32305;46.410;17.394;2024-01-30T01:43:34;21.10;32.30
43561;DHT22;32305;46.410;17.394;2024-01-30T01:46:01;21.10;32.20
43561;DHT22;32305;46.410;17.394;2024-01-30T01:48:28;21.10;32.20
43561;DHT22;32305;46.410;17.394;2024-01-30T01:50:56;21.10;32.20
43561;DHT22;32305;46.410;17.394;2024-01-30T01:53:23;21.10;32.20
43561;DHT22;32305;46.410;17.394;2024-01-30T01:55:51;21.00;32.20
43561;DHT22;32305;46.410;17.394;2024-01-30T01:58:19;21.00;32.30
43561;DHT22;32305;46.410;17.394;2024-01-30T02:00:49;21.00;32.20
43561;DHT22;32305;46.410;17.394;2024-01-30T02:03:17;21.00;32.30
43561;DHT22;32305;46.410;17.394;2024-01-30T02:05:44;21.00;32.30
43561;DHT22;32305;46.410;17.394;2024-01-30T02:08:12;21.00;32.30
43561;DHT22;32305;46.410;17.394;2024-01-30T02:10:39;21.00;32.30
43561;DHT22;32305;46.410;17.394;2024-01-30T02:13:06;21.00;32.30
43561;DHT22;32305;46.410;17.394;2024-01-30T02:15:33;20.90;32.20
43561;DHT22;32305;46.410;17.394;2024-01-30T02:18:00;21.00;32.30
43561;DHT22;32305;46.410;17.394;2024-01-30T02:20:28;21.00;32.30
43561;DHT22;32305;46.410;17.394;2024-01-30T02:22:56;20.90;32.30
43561;DHT22;32305;46.410;17.394;2024-01-30T02:25:32;21.00;32.30
43561;DHT22;32305;46.410;17.394;2024-01-30T02:27:59;20.90;32.20
43561;DHT22;32305;46.410;17.394;2024-01-30T02:30:26;20.90;32.30
43561;DHT22;32305;46.410;17.394;2024-01-30T02:32:53;20.90;32.20
43561;DHT22;32305;46.410;17.394;2024-01-30T02:35:20;21.00;32.20
43561;DHT22;32305;46.410;17.394;2024-01-30T02:37:48;20.90;32.20
43561;DHT22;32305;46.410;17.394;2024-01-30T02:40:15;21.00;32.30
43561;DHT22;32305;46.410;17.394;2024-01-30T02:42:42;21.00;32.20
43561;DHT22;32305;46.410;17.394;2024-01-30T02:45:12;21.00;32.20
43561;DHT22;32305;46.410;17.394;2024-01-30T02:47:40;21.00;32.10
43561;DHT22;32305;46.410;17.394;2024-01-30T02:50:07;21.00;32.10
43561;DHT22;32305;46.410;17.394;2024-01-30T02:52:34;21.00;32.10
43561;DHT22;32305;46.410;17.394;2024-01-30T02:55:01;21.00;32.10
43561;DHT22;32305;46.410;17.394;2024-01-30T02:57:29;21.00;32.10
43561;DHT22;32305;46.410;17.394;2024-01-30T02:59:56;21.00;32.10
43561;DHT22;32305;46.410;17.394;2024-01-30T03:02:23;20.90;32.10
43561;DHT22;32305;46.410;17.394;2024-01-30T03:04:50;20.90;32.10
43561;DHT22;32305;46.410;17.394;2024-01-30T03:07:17;20.90;32.10
43561;DHT22;32305;46.410;17.394;2024-01-30T03:09:44;20.90;32.10
43561;DHT22;32305;46.410;17.394;2024-01-30T03:12:11;20.90;32.10
43561;DHT22;32305;46.410;17.394;2024-01-30T03:14:38;20.90;32.10
43561;DHT22;32305;46.410;17.394;2024-01-30T03:17:05;20.90;32.10
43561;DHT22;32305;46.410;17.394;2024-01-30T03:19:32;20.90;32.10
43561;DHT22;32305;46.410;17.394;2024-01-30T03:21:59;20.90;32.10
43561;DHT22;32305;46.410;17.394;2024-01-30T03:24:26;20.90;32.10
43561;DHT22;32305;46.410;17.394;2024-01-30T03:26:53;20.90;32.10
43561;DHT22;32305;46.410;17.394;2024-01-30T03:29:20;20.90;32.10
43561;DHT22;32305;46.410;17.394;2024-01-30T03:31:46;20.90;32.10
43561;DHT22;32305;46.410;17.394;2024-01-30T03:34:13;20.90;32.10
43561;DHT22;32305;46.410;17.394;2024-01-30T03:36:40;20.80;32.00
43561;DHT22;32305;46.410;17.394;2024-01-30T03:39:07;20.90;32.10
43561;DHT22;32305;46.410;17.394;2024-01-30T03:41:34;20.90;32.10
43561;DHT22;32305;46.410;17.394;2024-01-30T03:44:01;20.90;32.10
43561;DHT22;32305;46.410;17.394;2024-01-30T03:46:28;20.90;32.10
43561;DHT22;32305;46.410;17.394;2024-01-30T03:48:55;20.90;32.10
43561;DHT22;32305;46.410;17.394;2024-01-30T03:51:22;20.90;32.00
43561;DHT22;32305;46.410;17.394;2024-01-30T03:53:49;20.90;32.00
43561;DHT22;32305;46.410;17.394;2024-01-30T03:56:15;20.90;31.90
43561;DHT22;32305;46.410;17.394;2024-01-30T03:58:42;20.90;31.90
43561;DHT22;32305;46.410;17.394;2024-01-30T04:01:14;20.90;31.90
43561;DHT22;32305;46.410;17.394;2024-01-30T04:03:41;20.90;31.90
43561;DHT22;32305;46.410;17.394;2024-01-30T04:06:10;20.90;31.90
43561;DHT22;32305;46.410;17.394;2024-01-30T04:08:38;20.90;31.90
43561;DHT22;32305;46.410;17.394;2024-01-30T04:11:05;20.90;31.90
43561;DHT22;32305;46.410;17.394;2024-01-30T04:13:35;20.80;31.90
43561;DHT22;32305;46.410;17.394;2024-01-30T04:16:02;20.80;31.90
43561;DHT22;32305;46.410;17.394;2024-01-30T04:18:30;20.80;31.90
43561;DHT22;32305;46.410;17.394;2024-01-30T04:20:57;20.80;31.90
43561;DHT22;32305;46.410;17.394;2024-01-30T04:23:24;20.80;31.90
43561;DHT22;32305;46.410;17.394;2024-01-30T04:25:50;20.80;32.00
43561;DHT22;32305;46.410;17.394;2024-01-30T04:28:18;20.80;31.90
43561;DHT22;32305;46.410;17.394;2024-01-30T04:30:45;20.80;31.90
43561;DHT22;32305;46.410;17.394;2024-01-30T04:33:12;20.80;31.90
43561;DHT22;32305;46.410;17.394;2024-01-30T04:35:39;20.80;32.00
43561;DHT22;32305;46.410;17.394;2024-01-30T04:38:06;20.80;32.00
43561;DHT22;32305;46.410;17.394;2024-01-30T04:40:33;20.80;31.70
43561;DHT22;32305;46.410;17.394;2024-01-30T04:43:00;20.80;31.50
43561;DHT22;32305;46.410;17.394;2024-01-30T04:45:27;20.80;31.20
43561;DHT22;32305;46.410;17.394;2024-01-30T04:47:54;20.90;31.00
43561;DHT22;32305;46.410;17.394;2024-01-30T04:50:21;20.80;30.80
43561;DHT22;32305;46.410;17.394;2024-01-30T04:52:48;20.80;30.70
43561;DHT22;32305;46.410;17.394;2024-01-30T04:55:15;20.90;30.70
43561;DHT22;32305;46.410;17.394;2024-01-30T04:57:43;20.80;30.60
43561;DHT22;32305;46.410;17.394;2024-01-30T05:00:10;20.80;30.60
43561;DHT22;32305;46.410;17.394;2024-01-30T05:02:36;20.80;30.60
43561;DHT22;32305;46.410;17.394;2024-01-30T05:05:04;20.80;30.60
43561;DHT22;32305;46.410;17.394;2024-01-30T05:07:31;20.80;30.50
43561;DHT22;32305;46.410;17.394;2024-01-30T05:09:58;20.80;30.50
43561;DHT22;32305;46.410;17.394;2024-01-30T05:12:28;20.80;30.50
43561;DHT22;32305;46.410;17.394;2024-01-30T05:14:55;20.80;30.50
43561;DHT22;32305;46.410;17.394;2024-01-30T05:17:22;20.80;30.40
43561;DHT22;32305;46.410;17.394;2024-01-30T05:19:49;20.80;30.40
43561;DHT22;32305;46.410;17.394;2024-01-30T05:22:16;20.80;30.40
43561;DHT22;32305;46.410;17.394;2024-01-30T05:24:45;20.80;30.40
43561;DHT22;32305;46.410;17.394;2024-01-30T05:27:12;20.90;30.40
43561;DHT22;32305;46.410;17.394;2024-01-30T05:29:40;20.90;30.40
43561;DHT22;32305;46.410;17.394;2024-01-30T05:32:07;20.90;30.30
43561;DHT22;32305;46.410;17.394;2024-01-30T05:34:35;20.90;30.30
43561;DHT22;32305;46.410;17.394;2024-01-30T05:37:02;20.90;30.30
43561;DHT22;32305;46.410;17.394;2024-01-30T05:39:29;21.00;30.30
43561;DHT22;32305;46.410;17.394;2024-01-30T05:41:56;21.00;30.20
43561;DHT22;32305;46.410;17.394;2024-01-30T05:44:23;21.00;30.10
43561;DHT22;32305;46.410;17.394;2024-01-30T05:46:49;21.00;30.10
43561;DHT22;32305;46.410;17.394;2024-01-30T05:49:16;21.00;30.00
43561;DHT22;32305;46.410;17.394;2024-01-30T05:51:43;21.10;30.20
43561;DHT22;32305;46.410;17.394;2024-01-30T05:54:10;21.10;30.00
43561;DHT22;32305;46.410;17.394;2024-01-30T05:56:40;21.10;30.00
43561;DHT22;32305;46.410;17.394;2024-01-30T05:59:07;21.10;30.00
43561;DHT22;32305;46.410;17.394;2024-01-30T06:01:34;21.10;30.00
43561;DHT22;32305;46.410;17.394;2024-01-30T06:04:01;21.10;30.00
43561;DHT22;32305;46.410;17.394;2024-01-30T06:06:28;21.10;29.90
43561;DHT22;32305;46.410;17.394;2024-01-30T06:08:55;21.20;29.90
43561;DHT22;32305;46.410;17.394;2024-01-30T06:11:22;21.20;29.90
43561;DHT22;32305;46.410;17.394;2024-01-30T06:13:49;21.20;29.90
43561;DHT22;32305;46.410;17.394;2024-01-30T06:16:16;21.30;29.90
43561;DHT22;32305;46.410;17.394;2024-01-30T06:18:43;21.30;29.90
43561;DHT22;32305;46.410;17.394;2024-01-30T06:21:10;21.30;30.00
43561;DHT22;32305;46.410;17.394;2024-01-30T06:23:39;21.30;30.00
43561;DHT22;32305;46.410;17.394;2024-01-30T06:26:09;21.40;30.20
43561;DHT22;32305;46.410;17.394;2024-01-30T06:28:36;21.40;30.40
43561;DHT22;32305;46.410;17.394;2024-01-30T06:31:03;21.40;30.20
43561;DHT22;32305;46.410;17.394;2024-01-30T06:33:30;21.50;30.30
43561;DHT22;32305;46.410;17.394;2024-01-30T06:35:57;21.50;30.30
43561;DHT22;32305;46.410;17.394;2024-01-30T06:38:24;21.50;30.50
43561;DHT22;32305;46.410;17.394;2024-01-30T06:40:50;21.50;30.40
43561;DHT22;32305;46.410;17.394;2024-01-30T06:43:17;21.60;30.70
43561;DHT22;32305;46.410;17.394;2024-01-30T06:45:44;21.60;30.70
43561;DHT22;32305;46.410;17.394;2024-01-30T06:48:11;21.60;30.50
43561;DHT22;32305;46.410;17.394;2024-01-30T06:50:39;21.70;30.70
43561;DHT22;32305;46.410;17.394;2024-01-30T06:53:06;21.70;30.30
43561;DHT22;32305;46.410;17.394;2024-01-30T06:55:33;21.70;30.40
43561;DHT22;32305;46.410;17.394;2024-01-30T06:58:00;21.70;30.50
43561;DHT22;32305;46.410;17.394;2024-01-30T07:00:27;21.80;30.40
43561;DHT22;32305;46.410;17.394;2024-01-30T07:02:54;21.80;30.30
43561;DHT22;32305;46.410;17.394;2024-01-30T07:05:21;21.80;30.20
43561;DHT22;32305;46.410;17.394;2024-01-30T07:07:48;21.90;30.40
43561;DHT22;32305;46.410;17.394;2024-01-30T07:10:16;21.90;30.50
43561;DHT22;32305;46.410;17.394;2024-01-30T07:12:43;22.00;30.60
43561;DHT22;32305;46.410;17.394;2024-01-30T07:15:10;22.10;31.20
43561;DHT22;32305;46.410;17.394;2024-01-30T07:17:37;22.10;30.80
43561;DHT22;32305;46.410;17.394;2024-01-30T07:20:04;22.20;30.80
43561;DHT22;32305;46.410;17.394;2024-01-30T07:22:32;22.20;30.70
43561;DHT22;32305;46.410;17.394;2024-01-30T07:25:00;22.20;30.70
43561;DHT22;32305;46.410;17.394;2024-01-30T07:27:27;22.20;30.70
43561;DHT22;32305;46.410;17.394;2024-01-30T07:29:55;22.30;30.70
43561;DHT22;32305;46.410;17.394;2024-01-30T07:32:21;22.30;30.80
43561;DHT22;32305;46.410;17.394;2024-01-30T07:34:49;22.30;30.80
43561;DHT22;32305;46.410;17.394;2024-01-30T07:37:32;22.30;30.90
43561;DHT22;32305;46.410;17.394;2024-01-30T07:40:00;22.40;30.90
43561;DHT22;32305;46.410;17.394;2024-01-30T07:42:28;22.40;30.60
43561;DHT22;32305;46.410;17.394;2024-01-30T07:44:55;22.40;30.90
43561;DHT22;32305;46.410;17.394;2024-01-30T07:47:22;22.50;31.10
43561;DHT22;32305;46.410;17.394;2024-01-30T07:49:49;22.50;31.10
43561;DHT22;32305;46.410;17.394;2024-01-30T07:52:16;22.60;31.20
43561;DHT22;32305;46.410;17.394;2024-01-30T07:57:53;22.60;30.60
43561;DHT22;32305;46.410;17.394;2024-01-30T08:00:22;22.70;30.60
43561;DHT22;32305;46.410;17.394;2024-01-30T08:02:49;22.70;30.50
43561;DHT22;32305;46.410;17.394;2024-01-30T08:05:16;22.70;30.50
43561;DHT22;32305;46.410;17.394;2024-01-30T08:07:43;22.70;30.50
43561;DHT22;32305;46.410;17.394;2024-01-30T08:10:11;22.80;30.40
43561;DHT22;32305;46.410;17.394;2024-01-30T08:12:38;22.80;30.40
43561;DHT22;32305;46.410;17.394;2024-01-30T08:15:05;22.90;30.40
43561;DHT22;32305;46.410;17.394;2024-01-30T08:17:32;22.90;30.40
43561;DHT22;32305;46.410;17.394;2024-01-30T08:19:59;22.90;30.40
43561;DHT22;32305;46.410;17.394;2024-01-30T08:22:26;22.90;30.90
43561;DHT22;32305;46.410;17.394;2024-01-30T08:24:53;23.00;30.30
43561;DHT22;32305;46.410;17.394;2024-01-30T08:27:21;23.00;30.30
43561;DHT22;32305;46.410;17.394;2024-01-30T08:29:48;23.00;30.30
43561;DHT22;32305;46.410;17.394;2024-01-30T08:32:14;23.00;30.40
43561;DHT22;32305;46.410;17.394;2024-01-30T08:34:41;23.00;30.40
43561;DHT22;32305;46.410;17.394;2024-01-30T08:37:09;23.00;30.50
43561;DHT22;32305;46.410;17.394;2024-01-30T08:39:37;23.00;30.50
43561;DHT22;32305;46.410;17.394;2024-01-30T08:42:04;23.10;30.50
43561;DHT22;32305;46.410;17.394;2024-01-30T08:44:31;23.10;30.50
43561;DHT22;32305;46.410;17.394;2024-01-30T08:46:58;23.10;30.40
43561;DHT22;32305;46.410;17.394;2024-01-30T08:49:26;23.20;30.40
43561;DHT22;32305;46.410;17.394;2024-01-30T08:51:53;23.20;30.40
43561;DHT22;32305;46.410;17.394;2024-01-30T08:54:24;23.20;30.30
43561;DHT22;32305;46.410;17.394;2024-01-30T08:56:51;23.20;30.20
43561;DHT22;32305;46.410;17.394;2024-01-30T08:59:19;23.20;30.00
43561;DHT22;32305;46.410;17.394;2024-01-30T09:01:46;23.20;30.00
43561;DHT22;32305;46.410;17.394;2024-01-30T09:04:29;23.20;30.00
43561;DHT22;32305;46.410;17.394;2024-01-30T09:06:56;23.30;30.00
43561;DHT22;32305;46.410;17.394;2024-01-30T09:09:23;23.30;30.00
43561;DHT22;32305;46.410;17.394;2024-01-30T09:11:50;23.30;30.00
43561;DHT22;32305;46.410;17.394;2024-01-30T09:14:17;23.30;30.00
43561;DHT22;32305;46.410;17.394;2024-01-30T09:16:47;23.30;30.00
43561;DHT22;32305;46.410;17.394;2024-01-30T09:19:15;23.30;30.00
43561;DHT22;32305;46.410;17.394;2024-01-30T09:21:43;23.30;30.00
43561;DHT22;32305;46.410;17.394;2024-01-30T09:24:10;23.30;30.00
43561;DHT22;32305;46.410;17.394;2024-01-30T09:26:37;23.30;30.00
43561;DHT22;32305;46.410;17.394;2024-01-30T09:29:04;23.30;30.00
43561;DHT22;32305;46.410;17.394;2024-01-30T09:31:31;23.30;30.10
43561;DHT22;32305;46.410;17.394;2024-01-30T09:33:58;23.30;30.00
43561;DHT22;32305;46.410;17.394;2024-01-30T09:36:25;23.30;30.10
43561;DHT22;32305;46.410;17.394;2024-01-30T09:38:52;23.30;30.10
43561;DHT22;32305;46.410;17.394;2024-01-30T09:41:19;23.30;30.00
43561;DHT22;32305;46.410;17.394;2024-01-30T09:43:47;23.30;30.00
43561;DHT22;32305;46.410;17.394;2024-01-30T09:46:16;23.30;29.90
43561;DHT22;32305;46.410;17.394;2024-01-30T09:48:46;23.30;29.90
43561;DHT22;32305;46.410;17.394;2024-01-30T09:51:14;23.30;30.00
43561;DHT22;32305;46.410;17.394;2024-01-30T09:53:42;23.30;30.00
43561;DHT22;32305;46.410;17.394;2024-01-30T09:56:09;23.30;30.10
43561;DHT22;32305;46.410;17.394;2024-01-30T09:58:37;23.30;30.10
43561;DHT22;32305;46.410;17.394;2024-01-30T10:01:06;23.30;30.40
43561;DHT22;32305;46.410;17.394;2024-01-30T10:03:33;23.40;30.70
43561;DHT22;32305;46.410;17.394;2024-01-30T10:06:01;23.40;30.80
43561;DHT22;32305;46.410;17.394;2024-01-30T10:08:28;23.40;30.80
43561;DHT22;32305;46.410;17.394;2024-01-30T10:10:56;23.50;30.80
43561;DHT22;32305;46.410;17.394;2024-01-30T10:13:25;23.60;30.70
43561;DHT22;32305;46.410;17.394;2024-01-30T10:15:53;23.60;30.60
43561;DHT22;32305;46.410;17.394;2024-01-30T10:18:20;23.60;30.50
43561;DHT22;32305;46.410;17.394;2024-01-30T10:20:49;23.60;30.40
43561;DHT22;32305;46.410;17.394;2024-01-30T10:23:16;23.60;30.90
43561;DHT22;32305;46.410;17.394;2024-01-30T10:25:43;23.60;30.30
43561;DHT22;32305;46.410;17.394;2024-01-30T10:28:10;23.60;30.30
43561;DHT22;32305;46.410;17.394;2024-01-30T10:30:38;23.60;30.40
43561;DHT22;32305;46.410;17.394;2024-01-30T10:33:04;23.60;30.50
43561;DHT22;32305;46.410;17.394;2024-01-30T10:35:32;23.60;30.50
43561;DHT22;32305;46.410;17.394;2024-01-30T10:38:00;23.70;30.70
43561;DHT22;32305;46.410;17.394;2024-01-30T10:40:28;23.70;30.80
43561;DHT22;32305;46.410;17.394;2024-01-30T10:42:55;23.80;30.80
43561;DHT22;32305;46.410;17.394;2024-01-30T10:45:23;23.80;30.80
43561;DHT22;32305;46.410;17.394;2024-01-30T10:47:53;23.80;30.80
43561;DHT22;32305;46.410;17.394;2024-01-30T10:50:20;23.80;30.90
43561;DHT22;32305;46.410;17.394;2024-01-30T10:52:47;23.90;30.90
43561;DHT22;32305;46.410;17.394;2024-01-30T10:55:14;23.90;30.70
43561;DHT22;32305;46.410;17.394;2024-01-30T10:57:42;24.00;30.70
43561;DHT22;32305;46.410;17.394;2024-01-30T11:00:10;24.00;30.70
43561;DHT22;32305;46.410;17.394;2024-01-30T11:02:38;24.00;30.30
43561;DHT22;32305;46.410;17.394;2024-01-30T11:05:06;24.00;30.10
43561;DHT22;32305;46.410;17.394;2024-01-30T11:07:33;24.00;30.00
43561;DHT22;32305;46.410;17.394;2024-01-30T11:10:02;24.00;30.00
43561;DHT22;32305;46.410;17.394;2024-01-30T11:12:31;24.00;30.00
43561;DHT22;32305;46.410;17.394;2024-01-30T11:15:04;24.00;30.00
43561;DHT22;32305;46.410;17.394;2024-01-30T11:17:44;24.10;30.10
43561;DHT22;32305;46.410;17.394;2024-01-30T11:20:12;24.10;30.00
43561;DHT22;32305;46.410;17.394;2024-01-30T11:22:40;24.10;30.00
43561;DHT22;32305;46.410;17.394;2024-01-30T11:25:10;24.10;30.00
43561;DHT22;32305;46.410;17.394;2024-01-30T11:27:38;24.10;30.00
43561;DHT22;32305;46.410;17.394;2024-01-30T11:30:05;24.20;30.00
43561;DHT22;32305;46.410;17.394;2024-01-30T11:32:32;24.20;30.00
43561;DHT22;32305;46.410;17.394;2024-01-30T11:34:59;24.20;30.00
43561;DHT22;32305;46.410;17.394;2024-01-30T11:37:26;24.20;29.90
43561;DHT22;32305;46.410;17.394;2024-01-30T11:39:54;24.20;29.80
43561;DHT22;32305;46.410;17.394;2024-01-30T11:42:22;24.20;29.80
43561;DHT22;32305;46.410;17.394;2024-01-30T11:44:51;24.20;29.80
43561;DHT22;32305;46.410;17.394;2024-01-30T11:47:18;24.10;29.70
43561;DHT22;32305;46.410;17.394;2024-01-30T11:49:45;24.10;29.80
43561;DHT22;32305;46.410;17.394;2024-01-30T11:52:13;24.20;29.90
43561;DHT22;32305;46.410;17.394;2024-01-30T11:54:40;24.10;29.70
43561;DHT22;32305;46.410;17.394;2024-01-30T11:57:07;24.10;29.60
43561;DHT22;32305;46.410;17.394;2024-01-30T11:59:34;24.10;29.50
43561;DHT22;32305;46.410;17.394;2024-01-30T12:02:00;24.20;29.50
43561;DHT22;32305;46.410;17.394;2024-01-30T12:04:28;24.10;29.40
43561;DHT22;32305;46.410;17.394;2024-01-30T12:06:56;24.10;29.40
43561;DHT22;32305;46.410;17.394;2024-01-30T12:09:23;24.10;29.30
43561;DHT22;32305;46.410;17.394;2024-01-30T12:11:50;24.10;29.30
43561;DHT22;32305;46.410;17.394;2024-01-30T12:14:17;24.10;29.30
43561;DHT22;32305;46.410;17.394;2024-01-30T12:16:47;24.10;29.30
43561;DHT22;32305;46.410;17.394;2024-01-30T12:19:21;24.10;29.30
43561;DHT22;32305;46.410;17.394;2024-01-30T12:21:48;24.20;29.30
43561;DHT22;32305;46.410;17.394;2024-01-30T12:24:20;24.10;29.40
43561;DHT22;32305;46.410;17.394;2024-01-30T12:26:50;24.10;29.40
43561;DHT22;32305;46.410;17.394;2024-01-30T12:29:19;24.10;29.70
43561;DHT22;32305;46.410;17.394;2024-01-30T12:31:47;24.10;29.90
43561;DHT22;32305;46.410;17.394;2024-01-30T12:34:14;24.10;30.00
43561;DHT22;32305;46.410;17.394;2024-01-30T12:36:43;24.10;30.00
43561;DHT22;32305;46.410;17.394;2024-01-30T12:39:11;24.20;30.10
43561;DHT22;32305;46.410;17.394;2024-01-30T12:41:39;24.10;30.10
43561;DHT22;32305;46.410;17.394;2024-01-30T12:44:07;24.20;30.30
43561;DHT22;32305;46.410;17.394;2024-01-30T12:46:34;24.20;30.30
43561;DHT22;32305;46.410;17.394;2024-01-30T12:49:01;24.20;30.40
43561;DHT22;32305;46.410;17.394;2024-01-30T12:51:28;24.30;30.40
43561;DHT22;32305;46.410;17.394;2024-01-30T12:53:55;24.30;30.50
43561;DHT22;32305;46.410;17.394;2024-01-30T12:56:22;24.30;30.40
43561;DHT22;32305;46.410;17.394;2024-01-30T12:58:49;24.30;30.40
43561;DHT22;32305;46.410;17.394;2024-01-30T13:01:19;24.30;30.40
43561;DHT22;32305;46.410;17.394;2024-01-30T13:03:46;24.40;30.30
43561;DHT22;32305;46.410;17.394;2024-01-30T13:06:13;24.40;30.10
43561;DHT22;32305;46.410;17.394;2024-01-30T13:08:40;24.40;30.00
43561;DHT22;32305;46.410;17.394;2024-01-30T13:11:07;24.40;30.00
43561;DHT22;32305;46.410;17.394;2024-01-30T13:13:45;24.40;30.00
43561;DHT22;32305;46.410;17.394;2024-01-30T13:16:13;24.40;30.00
43561;DHT22;32305;46.410;17.394;2024-01-30T13:18:40;24.40;30.00
43561;DHT22;32305;46.410;17.394;2024-01-30T13:21:07;24.40;30.00
43561;DHT22;32305;46.410;17.394;2024-01-30T13:23:34;24.50;30.00
43561;DHT22;32305;46.410;17.394;2024-01-30T13:26:01;24.50;30.00
43561;DHT22;32305;46.410;17.394;2024-01-30T13:28:29;24.50;30.00
43561;DHT22;32305;46.410;17.394;2024-01-30T13:30:56;24.50;30.00
43561;DHT22;32305;46.410;17.394;2024-01-30T13:33:23;24.50;30.00
43561;DHT22;32305;46.410;17.394;2024-01-30T13:35:50;24.50;30.00
43561;DHT22;32305;46.410;17.394;2024-01-30T13:38:17;24.50;30.00
43561;DHT22;32305;46.410;17.394;2024-01-30T13:40:44;24.50;30.00
43561;DHT22;32305;46.410;17.394;2024-01-30T13:43:11;24.50;30.00
43561;DHT22;32305;46.410;17.394;2024-01-30T13:45:38;24.50;30.00
43561;DHT22;32305;46.410;17.394;2024-01-30T13:48:05;24.50;30.00
43561;DHT22;32305;46.410;17.394;2024-01-30T13:50:33;24.50;30.00
43561;DHT22;32305;46.410;17.394;2024-01-30T13:52:59;24.50;29.90
43561;DHT22;32305;46.410;17.394;2024-01-30T13:55:27;24.50;29.80
43561;DHT22;32305;46.410;17.394;2024-01-30T13:57:54;24.50;29.70
43561;DHT22;32305;46.410;17.394;2024-01-30T14:00:22;24.50;29.80
43561;DHT22;32305;46.410;17.394;2024-01-30T14:02:49;24.50;29.90
43561;DHT22;32305;46.410;17.394;2024-01-30T14:05:16;24.50;30.00
43561;DHT22;32305;46.410;17.394;2024-01-30T14:07:46;24.50;30.00
43561;DHT22;32305;46.410;17.394;2024-01-30T14:10:13;24.60;30.00
43561;DHT22;32305;46.410;17.394;2024-01-30T14:12:41;24.60;30.10
43561;DHT22;32305;46.410;17.394;2024-01-30T14:15:09;24.60;30.10
43561;DHT22;32305;46.410;17.394;2024-01-30T14:17:53;24.60;30.10
43561;DHT22;32305;46.410;17.394;2024-01-30T14:20:20;24.60;30.20
43561;DHT22;32305;46.410;17.394;2024-01-30T14:22:47;24.60;30.20
43561;DHT22;32305;46.410;17.394;2024-01-30T14:25:14;24.60;30.20
43561;DHT22;32305;46.410;17.394;2024-01-30T14:27:43;24.60;30.80
43561;DHT22;32305;46.410;17.394;2024-01-30T14:30:10;24.60;30.20
43561;DHT22;32305;46.410;17.394;2024-01-30T14:32:38;24.60;30.20
43561;DHT22;32305;46.410;17.394;2024-01-30T14:35:05;24.60;30.30
43561;DHT22;32305;46.410;17.394;2024-01-30T14:37:32;24.60;30.20
43561;DHT22;32305;46.410;17.394;2024-01-30T14:39:59;24.60;30.30
43561;DHT22;32305;46.410;17.394;2024-01-30T14:42:26;24.70;30.40
43561;DHT22;32305;46.410;17.394;2024-01-30T14:44:57;24.60;30.30
43561;DHT22;32305;46.410;17.394;2024-01-30T14:47:25;24.60;30.30
43561;DHT22;32305;46.410;17.394;2024-01-30T14:49:52;24.60;30.30
43561;DHT22;32305;46.410;17.394;2024-01-30T14:52:19;24.60;30.50
43561;DHT22;32305;46.410;17.394;2024-01-30T14:54:47;24.60;30.50
43561;DHT22;32305;46.410;17.394;2024-01-30T14:57:14;24.60;30.40
43561;DHT22;32305;46.410;17.394;2024-01-30T14:59:41;24.60;30.20
43561;DHT22;32305;46.410;17.394;2024-01-30T15:02:08;24.70;30.10
43561;DHT22;32305;46.410;17.394;2024-01-30T15:04:35;24.60;30.30
43561;DHT22;32305;46.410;17.394;2024-01-30T15:07:02;24.60;30.40
43561;DHT22;32305;46.410;17.394;2024-01-30T15:09:29;24.60;30.50
43561;DHT22;32305;46.410;17.394;2024-01-30T15:11:57;24.60;30.50
43561;DHT22;32305;46.410;17.394;2024-01-30T15:14:24;24.60;30.70
43561;DHT22;32305;46.410;17.394;2024-01-30T15:16:51;24.50;30.80
43561;DHT22;32305;46.410;17.394;2024-01-30T15:19:18;24.50;30.60